sensor_id;sensor_type;location;lat;lon;timestamp;P1;durP1;ratioP1;P2;durP2;ratioP2
29938;SDS011;16799;50.844;5.304;2023-06-22T00:00:51;7.50;;;5.73;;
29938;SDS011;16799;50.844;5.304;2023-06-22T00:03:18;16.97;;;7.27;;
29938;SDS011;16799;50.844;5.304;2023-06-22T00:05:46;21.30;;;7.50;;
29938;SDS011;16799;50.844;5.304;2023-06-22T00:08:13;14.73;;;5.70;;
29938;SDS011;16799;50.844;5.304;2023-06-22T00:10:39;13.23;;;6.23;;
29938;SDS011;16799;50.844;5.304;2023-06-22T00:13:05;14.50;;;6.70;;
29938;SDS011;16799;50.844;5.304;2023-06-22T00:15:32;10.00;;;5.13;;
29938;SDS011;16799;50.844;5.304;2023-06-22T00:17:58;17.07;;;7.50;;
29938;SDS011;16799;50.844;5.304;2023-06-22T00:20:24;23.00;;;7.50;;
29938;SDS011;16799;50.844;5.304;2023-06-22T00:22:55;14.30;;;7.20;;
29938;SDS011;16799;50.844;5.304;2023-06-22T00:25:21;18.40;;;7.07;;
29938;SDS011;16799;50.844;5.304;2023-06-22T00:27:47;19.00;;;7.27;;
29938;SDS011;16799;50.844;5.304;2023-06-22T00:30:13;14.00;;;7.33;;
29938;SDS011;16799;50.844;5.304;2023-06-22T00:32:43;16.50;;;7.80;;
29938;SDS011;16799;50.844;5.304;2023-06-22T00:35:09;16.63;;;6.20;;
29938;SDS011;16799;50.844;5.304;2023-06-22T00:37:36;18.63;;;7.97;;
29938;SDS011;16799;50.844;5.304;2023-06-22T00:40:02;15.50;;;6.80;;
29938;SDS011;16799;50.844;5.304;2023-06-22T00:42:29;31.90;;;9.40;;
29938;SDS011;16799;50.844;5.304;2023-06-22T00:44:55;22.40;;;8.10;;
29938;SDS011;16799;50.844;5.304;2023-06-22T00:47:21;16.83;;;7.50;;
29938;SDS011;16799;50.844;5.304;2023-06-22T00:49:47;12.23;;;6.83;;
29938;SDS011;16799;50.844;5.304;2023-06-22T00:52:18;19.03;;;6.60;;
29938;SDS011;16799;50.844;5.304;2023-06-22T00:54:50;32.30;;;7.23;;
29938;SDS011;16799;50.844;5.304;2023-06-22T00:57:17;18.40;;;7.83;;
29938;SDS011;16799;50.844;5.304;2023-06-22T00:59:44;15.23;;;5.63;;
29938;SDS011;16799;50.844;5.304;2023-06-22T01:02:10;20.50;;;7.10;;
29938;SDS011;16799;50.844;5.304;2023-06-22T01:04:37;20.50;;;8.63;;
29938;SDS011;16799;50.844;5.304;2023-06-22T01:07:10;23.43;;;7.27;;
29938;SDS011;16799;50.844;5.304;2023-06-22T01:10:04;41.17;;;7.40;;
29938;SDS011;16799;50.844;5.304;2023-06-22T01:12:40;13.73;;;7.10;;
29938;SDS011;16799;50.844;5.304;2023-06-22T01:15:44;18.90;;;7.03;;
29938;SDS011;16799;50.844;5.304;2023-06-22T01:18:09;20.23;;;5.60;;
29938;SDS011;16799;50.844;5.304;2023-06-22T01:20:36;14.57;;;6.27;;
29938;SDS011;16799;50.844;5.304;2023-06-22T01:26:02;23.97;;;6.97;;
29938;SDS011;16799;50.844;5.304;2023-06-22T01:28:50;14.30;;;5.70;;
29938;SDS011;16799;50.844;5.304;2023-06-22T01:31:19;21.67;;;6.73;;
29938;SDS011;16799;50.844;5.304;2023-06-22T01:33:52;17.50;;;5.50;;
29938;SDS011;16799;50.844;5.304;2023-06-22T01:36:21;9.67;;;4.80;;
29938;SDS011;16799;50.844;5.304;2023-06-22T01:38:49;16.43;;;6.37;;
29938;SDS011;16799;50.844;5.304;2023-06-22T01:41:19;17.17;;;6.00;;
29938;SDS011;16799;50.844;5.304;2023-06-22T01:43:45;13.83;;;4.80;;
29938;SDS011;16799;50.844;5.304;2023-06-22T01:46:12;10.60;;;4.93;;
29938;SDS011;16799;50.844;5.304;2023-06-22T01:48:39;9.30;;;5.23;;
29938;SDS011;16799;50.844;5.304;2023-06-22T01:51:05;13.30;;;5.00;;
29938;SDS011;16799;50.844;5.304;2023-06-22T01:53:31;11.90;;;4.80;;
29938;SDS011;16799;50.844;5.304;2023-06-22T01:55:57;14.63;;;4.93;;
29938;SDS011;16799;50.844;5.304;2023-06-22T01:58:23;10.90;;;5.77;;
29938;SDS011;16799;50.844;5.304;2023-06-22T02:01:11;11.83;;;5.63;;
29938;SDS011;16799;50.844;5.304;2023-06-22T02:03:43;14.77;;;6.00;;
29938;SDS011;16799;50.844;5.304;2023-06-22T02:06:23;19.47;;;4.90;;
29938;SDS011;16799;50.844;5.304;2023-06-22T02:08:55;13.07;;;4.67;;
29938;SDS011;16799;50.844;5.304;2023-06-22T02:11:26;12.37;;;5.30;;
29938;SDS011;16799;50.844;5.304;2023-06-22T02:13:52;13.50;;;5.03;;
29938;SDS011;16799;50.844;5.304;2023-06-22T02:16:20;11.43;;;5.33;;
29938;SDS011;16799;50.844;5.304;2023-06-22T02:18:49;10.33;;;5.57;;
29938;SDS011;16799;50.844;5.304;2023-06-22T02:21:19;17.33;;;6.57;;
29938;SDS011;16799;50.844;5.304;2023-06-22T02:23:45;22.43;;;7.70;;
29938;SDS011;16799;50.844;5.304;2023-06-22T02:26:11;31.00;;;8.23;;
29938;SDS011;16799;50.844;5.304;2023-06-22T02:28:37;22.77;;;8.13;;
29938;SDS011;16799;50.844;5.304;2023-06-22T02:31:03;27.83;;;9.50;;
29938;SDS011;16799;50.844;5.304;2023-06-22T02:33:29;34.93;;;9.20;;
29938;SDS011;16799;50.844;5.304;2023-06-22T02:35:54;42.57;;;11.50;;
29938;SDS011;16799;50.844;5.304;2023-06-22T02:38:20;30.17;;;10.47;;
29938;SDS011;16799;50.844;5.304;2023-06-22T02:40:46;21.53;;;9.50;;
29938;SDS011;16799;50.844;5.304;2023-06-22T02:43:12;25.13;;;9.93;;
29938;SDS011;16799;50.844;5.304;2023-06-22T02:45:38;28.00;;;9.83;;
29938;SDS011;16799;50.844;5.304;2023-06-22T02:48:04;23.30;;;8.47;;
29938;SDS011;16799;50.844;5.304;2023-06-22T02:50:30;34.23;;;11.33;;
29938;SDS011;16799;50.844;5.304;2023-06-22T02:52:55;16.73;;;9.20;;
29938;SDS011;16799;50.844;5.304;2023-06-22T02:55:21;30.50;;;9.30;;
29938;SDS011;16799;50.844;5.304;2023-06-22T02:57:47;30.30;;;8.57;;
29938;SDS011;16799;50.844;5.304;2023-06-22T03:00:13;23.30;;;9.20;;
29938;SDS011;16799;50.844;5.304;2023-06-22T03:02:46;28.80;;;10.43;;
29938;SDS011;16799;50.844;5.304;2023-06-22T03:05:13;27.23;;;10.97;;
29938;SDS011;16799;50.844;5.304;2023-06-22T03:07:40;25.67;;;10.17;;
29938;SDS011;16799;50.844;5.304;2023-06-22T03:10:07;24.87;;;8.67;;
29938;SDS011;16799;50.844;5.304;2023-06-22T03:12:40;39.03;;;11.70;;
29938;SDS011;16799;50.844;5.304;2023-06-22T03:15:07;37.07;;;11.10;;
29938;SDS011;16799;50.844;5.304;2023-06-22T03:17:37;27.77;;;10.83;;
29938;SDS011;16799;50.844;5.304;2023-06-22T03:20:05;27.50;;;9.90;;
29938;SDS011;16799;50.844;5.304;2023-06-22T03:22:35;30.00;;;10.80;;
29938;SDS011;16799;50.844;5.304;2023-06-22T03:25:02;31.27;;;10.97;;
29938;SDS011;16799;50.844;5.304;2023-06-22T03:27:28;23.20;;;9.57;;
29938;SDS011;16799;50.844;5.304;2023-06-22T03:29:53;29.83;;;12.17;;
29938;SDS011;16799;50.844;5.304;2023-06-22T03:32:19;34.33;;;11.30;;
29938;SDS011;16799;50.844;5.304;2023-06-22T03:34:44;29.77;;;12.87;;
29938;SDS011;16799;50.844;5.304;2023-06-22T03:37:13;32.63;;;10.73;;
29938;SDS011;16799;50.844;5.304;2023-06-22T03:39:40;40.40;;;11.60;;
29938;SDS011;16799;50.844;5.304;2023-06-22T03:42:06;38.47;;;11.50;;
29938;SDS011;16799;50.844;5.304;2023-06-22T03:44:32;25.00;;;10.50;;
29938;SDS011;16799;50.844;5.304;2023-06-22T03:46:58;30.67;;;10.90;;
29938;SDS011;16799;50.844;5.304;2023-06-22T03:49:23;19.87;;;9.50;;
29938;SDS011;16799;50.844;5.304;2023-06-22T03:51:49;22.10;;;9.97;;
29938;SDS011;16799;50.844;5.304;2023-06-22T03:54:15;34.93;;;10.53;;
29938;SDS011;16799;50.844;5.304;2023-06-22T03:56:40;23.80;;;9.40;;
29938;SDS011;16799;50.844;5.304;2023-06-22T03:59:06;30.70;;;9.83;;
29938;SDS011;16799;50.844;5.304;2023-06-22T04:01:32;28.03;;;10.10;;
29938;SDS011;16799;50.844;5.304;2023-06-22T04:03:57;21.27;;;9.87;;
29938;SDS011;16799;50.844;5.304;2023-06-22T04:06:23;23.10;;;9.60;;
29938;SDS011;16799;50.844;5.304;2023-06-22T04:08:48;20.07;;;8.47;;
29938;SDS011;16799;50.844;5.304;2023-06-22T04:11:16;13.87;;;8.20;;
29938;SDS011;16799;50.844;5.304;2023-06-22T04:13:43;10.63;;;7.83;;
29938;SDS011;16799;50.844;5.304;2023-06-22T04:16:08;15.40;;;9.30;;
29938;SDS011;16799;50.844;5.304;2023-06-22T04:18:34;20.83;;;9.30;;
29938;SDS011;16799;50.844;5.304;2023-06-22T04:21:00;21.13;;;8.83;;
29938;SDS011;16799;50.844;5.304;2023-06-22T04:23:26;21.83;;;8.63;;
29938;SDS011;16799;50.844;5.304;2023-06-22T04:25:52;16.53;;;9.50;;
29938;SDS011;16799;50.844;5.304;2023-06-22T04:28:17;19.00;;;8.80;;
29938;SDS011;16799;50.844;5.304;2023-06-22T04:30:43;21.77;;;10.50;;
29938;SDS011;16799;50.844;5.304;2023-06-22T04:33:13;20.93;;;11.20;;
29938;SDS011;16799;50.844;5.304;2023-06-22T04:35:39;19.87;;;11.00;;
29938;SDS011;16799;50.844;5.304;2023-06-22T04:38:08;17.27;;;11.80;;
29938;SDS011;16799;50.844;5.304;2023-06-22T04:40:33;25.37;;;10.73;;
29938;SDS011;16799;50.844;5.304;2023-06-22T04:42:59;25.03;;;10.83;;
29938;SDS011;16799;50.844;5.304;2023-06-22T04:45:27;16.10;;;9.47;;
29938;SDS011;16799;50.844;5.304;2023-06-22T04:47:57;30.33;;;13.20;;
29938;SDS011;16799;50.844;5.304;2023-06-22T04:50:23;28.27;;;13.00;;
29938;SDS011;16799;50.844;5.304;2023-06-22T04:52:50;23.23;;;11.80;;
29938;SDS011;16799;50.844;5.304;2023-06-22T04:55:16;22.13;;;12.23;;
29938;SDS011;16799;50.844;5.304;2023-06-22T04:57:46;20.17;;;12.10;;
29938;SDS011;16799;50.844;5.304;2023-06-22T05:00:19;22.20;;;12.10;;
29938;SDS011;16799;50.844;5.304;2023-06-22T05:02:47;23.63;;;15.40;;
29938;SDS011;16799;50.844;5.304;2023-06-22T05:05:13;22.23;;;15.90;;
29938;SDS011;16799;50.844;5.304;2023-06-22T05:07:40;22.83;;;15.57;;
29938;SDS011;16799;50.844;5.304;2023-06-22T05:10:15;24.30;;;16.43;;
29938;SDS011;16799;50.844;5.304;2023-06-22T05:12:41;26.73;;;17.83;;
29938;SDS011;16799;50.844;5.304;2023-06-22T05:15:07;24.60;;;17.40;;
29938;SDS011;16799;50.844;5.304;2023-06-22T05:17:33;26.57;;;18.20;;
29938;SDS011;16799;50.844;5.304;2023-06-22T05:20:00;23.23;;;18.10;;
29938;SDS011;16799;50.844;5.304;2023-06-22T05:22:26;22.43;;;18.07;;
29938;SDS011;16799;50.844;5.304;2023-06-22T05:24:51;28.60;;;18.00;;
29938;SDS011;16799;50.844;5.304;2023-06-22T05:27:17;32.73;;;22.93;;
29938;SDS011;16799;50.844;5.304;2023-06-22T05:29:43;22.40;;;20.00;;
29938;SDS011;16799;50.844;5.304;2023-06-22T05:32:08;23.67;;;19.40;;
29938;SDS011;16799;50.844;5.304;2023-06-22T05:34:34;24.70;;;20.00;;
29938;SDS011;16799;50.844;5.304;2023-06-22T05:37:00;30.87;;;21.73;;
29938;SDS011;16799;50.844;5.304;2023-06-22T05:39:26;25.17;;;20.33;;
29938;SDS011;16799;50.844;5.304;2023-06-22T05:41:52;34.00;;;22.70;;
29938;SDS011;16799;50.844;5.304;2023-06-22T05:44:18;29.80;;;21.13;;
29938;SDS011;16799;50.844;5.304;2023-06-22T05:46:44;31.67;;;24.07;;
29938;SDS011;16799;50.844;5.304;2023-06-22T05:49:11;32.50;;;21.90;;
29938;SDS011;16799;50.844;5.304;2023-06-22T05:51:38;30.63;;;22.70;;
29938;SDS011;16799;50.844;5.304;2023-06-22T05:54:03;30.53;;;24.10;;
29938;SDS011;16799;50.844;5.304;2023-06-22T05:56:29;37.27;;;23.60;;
29938;SDS011;16799;50.844;5.304;2023-06-22T05:58:55;25.53;;;21.27;;
29938;SDS011;16799;50.844;5.304;2023-06-22T06:01:20;27.23;;;22.03;;
29938;SDS011;16799;50.844;5.304;2023-06-22T06:03:46;37.73;;;24.63;;
29938;SDS011;16799;50.844;5.304;2023-06-22T06:06:13;25.80;;;23.10;;
29938;SDS011;16799;50.844;5.304;2023-06-22T06:08:39;34.90;;;25.60;;
29938;SDS011;16799;50.844;5.304;2023-06-22T06:11:05;28.50;;;24.17;;
29938;SDS011;16799;50.844;5.304;2023-06-22T06:13:30;33.20;;;24.83;;
29938;SDS011;16799;50.844;5.304;2023-06-22T06:15:56;31.07;;;23.70;;
29938;SDS011;16799;50.844;5.304;2023-06-22T06:18:22;38.33;;;25.50;;
29938;SDS011;16799;50.844;5.304;2023-06-22T06:20:48;37.23;;;23.13;;
29938;SDS011;16799;50.844;5.304;2023-06-22T06:23:14;30.50;;;23.40;;
29938;SDS011;16799;50.844;5.304;2023-06-22T06:25:39;33.97;;;25.10;;
29938;SDS011;16799;50.844;5.304;2023-06-22T06:28:05;29.27;;;24.80;;
29938;SDS011;16799;50.844;5.304;2023-06-22T06:30:31;36.20;;;25.53;;
29938;SDS011;16799;50.844;5.304;2023-06-22T06:32:57;28.37;;;24.30;;
29938;SDS011;16799;50.844;5.304;2023-06-22T06:35:22;28.27;;;23.10;;
29938;SDS011;16799;50.844;5.304;2023-06-22T06:37:48;32.47;;;22.50;;
29938;SDS011;16799;50.844;5.304;2023-06-22T06:40:16;27.27;;;23.23;;
29938;SDS011;16799;50.844;5.304;2023-06-22T06:42:43;27.10;;;23.07;;
29938;SDS011;16799;50.844;5.304;2023-06-22T06:45:19;30.60;;;23.50;;
29938;SDS011;16799;50.844;5.304;2023-06-22T06:47:47;36.03;;;22.50;;
29938;SDS011;16799;50.844;5.304;2023-06-22T06:50:14;30.77;;;21.50;;
29938;SDS011;16799;50.844;5.304;2023-06-22T06:52:39;30.33;;;20.63;;
29938;SDS011;16799;50.844;5.304;2023-06-22T06:55:06;29.07;;;21.67;;
29938;SDS011;16799;50.844;5.304;2023-06-22T06:57:35;25.90;;;20.60;;
29938;SDS011;16799;50.844;5.304;2023-06-22T07:00:02;27.27;;;22.47;;
29938;SDS011;16799;50.844;5.304;2023-06-22T07:02:34;28.80;;;22.07;;
29938;SDS011;16799;50.844;5.304;2023-06-22T07:05:00;24.97;;;21.70;;
29938;SDS011;16799;50.844;5.304;2023-06-22T07:07:28;26.00;;;20.30;;
29938;SDS011;16799;50.844;5.304;2023-06-22T07:09:54;32.47;;;20.37;;
29938;SDS011;16799;50.844;5.304;2023-06-22T07:12:20;31.03;;;21.70;;
29938;SDS011;16799;50.844;5.304;2023-06-22T07:14:46;23.53;;;20.77;;
29938;SDS011;16799;50.844;5.304;2023-06-22T07:17:11;29.00;;;22.87;;
29938;SDS011;16799;50.844;5.304;2023-06-22T07:19:37;26.83;;;19.10;;
29938;SDS011;16799;50.844;5.304;2023-06-22T07:22:03;27.83;;;18.53;;
29938;SDS011;16799;50.844;5.304;2023-06-22T07:24:29;21.20;;;18.83;;
29938;SDS011;16799;50.844;5.304;2023-06-22T07:26:55;25.50;;;18.10;;
29938;SDS011;16799;50.844;5.304;2023-06-22T07:29:22;20.27;;;17.93;;
29938;SDS011;16799;50.844;5.304;2023-06-22T07:31:49;20.43;;;17.27;;
29938;SDS011;16799;50.844;5.304;2023-06-22T07:34:16;20.77;;;17.03;;
29938;SDS011;16799;50.844;5.304;2023-06-22T07:36:43;20.53;;;18.33;;
29938;SDS011;16799;50.844;5.304;2023-06-22T07:39:09;20.60;;;17.47;;
29938;SDS011;16799;50.844;5.304;2023-06-22T07:41:35;17.40;;;15.53;;
29938;SDS011;16799;50.844;5.304;2023-06-22T07:44:01;23.83;;;16.40;;
29938;SDS011;16799;50.844;5.304;2023-06-22T07:46:28;17.90;;;16.00;;
29938;SDS011;16799;50.844;5.304;2023-06-22T07:48:55;25.13;;;19.33;;
29938;SDS011;16799;50.844;5.304;2023-06-22T07:51:21;23.20;;;17.77;;
29938;SDS011;16799;50.844;5.304;2023-06-22T07:53:47;19.63;;;17.50;;
29938;SDS011;16799;50.844;5.304;2023-06-22T07:56:13;27.13;;;21.67;;
29938;SDS011;16799;50.844;5.304;2023-06-22T07:58:43;21.13;;;18.90;;
29938;SDS011;16799;50.844;5.304;2023-06-22T08:01:13;20.90;;;18.70;;
29938;SDS011;16799;50.844;5.304;2023-06-22T08:03:39;22.63;;;19.60;;
29938;SDS011;16799;50.844;5.304;2023-06-22T08:06:05;23.77;;;18.80;;
29938;SDS011;16799;50.844;5.304;2023-06-22T08:08:31;22.07;;;19.10;;
29938;SDS011;16799;50.844;5.304;2023-06-22T08:10:56;18.70;;;16.70;;
29938;SDS011;16799;50.844;5.304;2023-06-22T08:13:22;19.50;;;16.97;;
29938;SDS011;16799;50.844;5.304;2023-06-22T08:15:48;19.07;;;16.97;;
29938;SDS011;16799;50.844;5.304;2023-06-22T08:18:14;21.63;;;18.30;;
29938;SDS011;16799;50.844;5.304;2023-06-22T08:20:41;21.13;;;17.93;;
29938;SDS011;16799;50.844;5.304;2023-06-22T08:23:07;21.87;;;18.63;;
29938;SDS011;16799;50.844;5.304;2023-06-22T08:25:36;25.67;;;18.80;;
29938;SDS011;16799;50.844;5.304;2023-06-22T08:28:02;20.47;;;18.57;;
29938;SDS011;16799;50.844;5.304;2023-06-22T08:30:28;19.33;;;16.63;;
29938;SDS011;16799;50.844;5.304;2023-06-22T08:32:54;22.30;;;19.93;;
29938;SDS011;16799;50.844;5.304;2023-06-22T08:35:21;20.37;;;18.27;;
29938;SDS011;16799;50.844;5.304;2023-06-22T08:37:47;22.90;;;19.00;;
29938;SDS011;16799;50.844;5.304;2023-06-22T08:40:17;24.20;;;20.70;;
29938;SDS011;16799;50.844;5.304;2023-06-22T08:42:45;21.27;;;18.30;;
29938;SDS011;16799;50.844;5.304;2023-06-22T08:45:11;20.90;;;18.80;;
29938;SDS011;16799;50.844;5.304;2023-06-22T08:47:37;23.83;;;19.10;;
29938;SDS011;16799;50.844;5.304;2023-06-22T08:50:04;20.90;;;18.77;;
29938;SDS011;16799;50.844;5.304;2023-06-22T08:52:30;26.00;;;19.27;;
29938;SDS011;16799;50.844;5.304;2023-06-22T08:54:56;26.27;;;18.67;;
29938;SDS011;16799;50.844;5.304;2023-06-22T08:57:23;40.77;;;21.23;;
29938;SDS011;16799;50.844;5.304;2023-06-22T08:59:49;25.13;;;20.70;;
29938;SDS011;16799;50.844;5.304;2023-06-22T09:02:17;25.73;;;20.87;;
29938;SDS011;16799;50.844;5.304;2023-06-22T09:04:43;25.27;;;19.47;;
29938;SDS011;16799;50.844;5.304;2023-06-22T09:07:08;22.97;;;20.60;;
29938;SDS011;16799;50.844;5.304;2023-06-22T09:09:34;23.03;;;19.20;;
29938;SDS011;16799;50.844;5.304;2023-06-22T09:11:59;28.83;;;21.37;;
29938;SDS011;16799;50.844;5.304;2023-06-22T09:14:25;23.50;;;20.07;;
29938;SDS011;16799;50.844;5.304;2023-06-22T09:16:51;29.63;;;20.83;;
29938;SDS011;16799;50.844;5.304;2023-06-22T09:19:16;29.83;;;21.93;;
29938;SDS011;16799;50.844;5.304;2023-06-22T09:21:42;27.57;;;22.70;;
29938;SDS011;16799;50.844;5.304;2023-06-22T09:24:08;22.63;;;19.83;;
29938;SDS011;16799;50.844;5.304;2023-06-22T09:26:33;23.43;;;21.10;;
29938;SDS011;16799;50.844;5.304;2023-06-22T09:28:59;23.63;;;21.33;;
29938;SDS011;16799;50.844;5.304;2023-06-22T09:31:25;28.20;;;24.10;;
29938;SDS011;16799;50.844;5.304;2023-06-22T09:33:51;27.23;;;22.90;;
29938;SDS011;16799;50.844;5.304;2023-06-22T09:36:18;33.10;;;24.37;;
29938;SDS011;16799;50.844;5.304;2023-06-22T09:38:43;33.43;;;25.70;;
29938;SDS011;16799;50.844;5.304;2023-06-22T09:41:09;32.20;;;25.30;;
29938;SDS011;16799;50.844;5.304;2023-06-22T09:43:35;29.33;;;26.23;;
29938;SDS011;16799;50.844;5.304;2023-06-22T09:46:01;33.27;;;29.10;;
29938;SDS011;16799;50.844;5.304;2023-06-22T09:48:27;31.33;;;26.13;;
29938;SDS011;16799;50.844;5.304;2023-06-22T09:50:55;33.60;;;27.47;;
29938;SDS011;16799;50.844;5.304;2023-06-22T09:53:21;31.07;;;25.60;;
29938;SDS011;16799;50.844;5.304;2023-06-22T09:55:47;30.87;;;27.67;;
29938;SDS011;16799;50.844;5.304;2023-06-22T09:58:12;35.00;;;30.00;;
29938;SDS011;16799;50.844;5.304;2023-06-22T10:00:38;47.37;;;29.17;;
29938;SDS011;16799;50.844;5.304;2023-06-22T10:03:04;37.83;;;33.73;;
29938;SDS011;16799;50.844;5.304;2023-06-22T10:05:29;47.23;;;35.20;;
29938;SDS011;16799;50.844;5.304;2023-06-22T10:07:55;41.63;;;34.67;;
29938;SDS011;16799;50.844;5.304;2023-06-22T10:10:21;43.40;;;34.50;;
29938;SDS011;16799;50.844;5.304;2023-06-22T10:12:47;44.33;;;35.40;;
29938;SDS011;16799;50.844;5.304;2023-06-22T10:15:20;39.03;;;32.87;;
29938;SDS011;16799;50.844;5.304;2023-06-22T10:17:46;57.17;;;39.43;;
29938;SDS011;16799;50.844;5.304;2023-06-22T10:20:12;60.43;;;43.37;;
29938;SDS011;16799;50.844;5.304;2023-06-22T10:22:42;64.13;;;46.93;;
29938;SDS011;16799;50.844;5.304;2023-06-22T10:25:09;67.83;;;46.70;;
29938;SDS011;16799;50.844;5.304;2023-06-22T10:27:36;64.87;;;46.87;;
29938;SDS011;16799;50.844;5.304;2023-06-22T10:30:04;60.53;;;48.57;;
29938;SDS011;16799;50.844;5.304;2023-06-22T10:32:31;62.57;;;49.40;;
29938;SDS011;16799;50.844;5.304;2023-06-22T10:34:57;64.37;;;46.33;;
29938;SDS011;16799;50.844;5.304;2023-06-22T10:37:22;61.10;;;48.40;;
29938;SDS011;16799;50.844;5.304;2023-06-22T10:39:48;57.50;;;45.20;;
29938;SDS011;16799;50.844;5.304;2023-06-22T10:42:14;63.03;;;48.67;;
29938;SDS011;16799;50.844;5.304;2023-06-22T10:44:39;63.80;;;50.37;;
29938;SDS011;16799;50.844;5.304;2023-06-22T10:47:08;67.73;;;52.77;;
29938;SDS011;16799;50.844;5.304;2023-06-22T10:49:33;73.23;;;58.33;;
29938;SDS011;16799;50.844;5.304;2023-06-22T10:51:59;80.00;;;57.77;;
29938;SDS011;16799;50.844;5.304;2023-06-22T10:54:25;73.00;;;53.73;;
29938;SDS011;16799;50.844;5.304;2023-06-22T10:56:50;70.43;;;52.03;;
29938;SDS011;16799;50.844;5.304;2023-06-22T10:59:16;65.23;;;50.53;;
29938;SDS011;16799;50.844;5.304;2023-06-22T11:01:42;81.73;;;53.60;;
29938;SDS011;16799;50.844;5.304;2023-06-22T11:04:07;63.27;;;50.13;;
29938;SDS011;16799;50.844;5.304;2023-06-22T11:06:33;62.00;;;49.07;;
29938;SDS011;16799;50.844;5.304;2023-06-22T11:08:59;68.73;;;48.10;;
29938;SDS011;16799;50.844;5.304;2023-06-22T11:11:25;63.50;;;48.60;;
29938;SDS011;16799;50.844;5.304;2023-06-22T11:13:52;59.57;;;47.67;;
29938;SDS011;16799;50.844;5.304;2023-06-22T11:16:18;59.33;;;44.27;;
29938;SDS011;16799;50.844;5.304;2023-06-22T11:18:43;53.60;;;46.70;;
29938;SDS011;16799;50.844;5.304;2023-06-22T11:21:09;52.47;;;42.63;;
29938;SDS011;16799;50.844;5.304;2023-06-22T11:23:35;48.97;;;42.07;;
29938;SDS011;16799;50.844;5.304;2023-06-22T11:26:00;66.00;;;43.30;;
29938;SDS011;16799;50.844;5.304;2023-06-22T11:28:26;54.13;;;42.00;;
29938;SDS011;16799;50.844;5.304;2023-06-22T11:30:52;52.90;;;42.83;;
29938;SDS011;16799;50.844;5.304;2023-06-22T11:33:18;48.33;;;41.77;;
29938;SDS011;16799;50.844;5.304;2023-06-22T11:35:44;47.10;;;39.00;;
29938;SDS011;16799;50.844;5.304;2023-06-22T11:38:09;48.90;;;41.90;;
29938;SDS011;16799;50.844;5.304;2023-06-22T11:40:35;43.60;;;38.70;;
29938;SDS011;16799;50.844;5.304;2023-06-22T11:43:01;50.83;;;39.07;;
29938;SDS011;16799;50.844;5.304;2023-06-22T11:45:26;47.13;;;40.03;;
29938;SDS011;16799;50.844;5.304;2023-06-22T11:47:52;48.27;;;42.80;;
29938;SDS011;16799;50.844;5.304;2023-06-22T11:50:18;46.53;;;40.77;;
29938;SDS011;16799;50.844;5.304;2023-06-22T11:52:43;52.00;;;41.77;;
29938;SDS011;16799;50.844;5.304;2023-06-22T11:55:09;50.17;;;41.80;;
29938;SDS011;16799;50.844;5.304;2023-06-22T11:57:38;52.40;;;41.77;;
29938;SDS011;16799;50.844;5.304;2023-06-22T12:00:16;58.37;;;44.30;;
29938;SDS011;16799;50.844;5.304;2023-06-22T12:02:43;56.97;;;45.30;;
29938;SDS011;16799;50.844;5.304;2023-06-22T12:05:10;59.23;;;45.40;;
29938;SDS011;16799;50.844;5.304;2023-06-22T12:07:36;59.10;;;47.10;;
29938;SDS011;16799;50.844;5.304;2023-06-22T12:10:02;58.63;;;46.20;;
29938;SDS011;16799;50.844;5.304;2023-06-22T12:12:28;57.37;;;44.67;;
29938;SDS011;16799;50.844;5.304;2023-06-22T12:14:54;61.77;;;46.20;;
29938;SDS011;16799;50.844;5.304;2023-06-22T12:17:20;59.83;;;44.73;;
29938;SDS011;16799;50.844;5.304;2023-06-22T12:19:45;56.60;;;45.13;;
29938;SDS011;16799;50.844;5.304;2023-06-22T12:22:11;64.60;;;48.93;;
29938;SDS011;16799;50.844;5.304;2023-06-22T12:24:37;62.33;;;45.70;;
29938;SDS011;16799;50.844;5.304;2023-06-22T12:27:02;60.30;;;47.00;;
29938;SDS011;16799;50.844;5.304;2023-06-22T12:29:29;58.20;;;43.40;;
29938;SDS011;16799;50.844;5.304;2023-06-22T12:31:54;68.97;;;50.30;;
29938;SDS011;16799;50.844;5.304;2023-06-22T12:34:20;65.33;;;46.90;;
29938;SDS011;16799;50.844;5.304;2023-06-22T12:36:46;72.97;;;51.07;;
29938;SDS011;16799;50.844;5.304;2023-06-22T12:39:13;72.67;;;54.80;;
29938;SDS011;16799;50.844;5.304;2023-06-22T12:41:39;75.03;;;52.67;;
29938;SDS011;16799;50.844;5.304;2023-06-22T12:44:05;78.43;;;54.83;;
29938;SDS011;16799;50.844;5.304;2023-06-22T12:46:31;67.17;;;54.40;;
29938;SDS011;16799;50.844;5.304;2023-06-22T12:49:02;69.77;;;51.80;;
29938;SDS011;16799;50.844;5.304;2023-06-22T12:51:29;71.67;;;52.97;;
29938;SDS011;16799;50.844;5.304;2023-06-22T12:53:55;72.80;;;53.10;;
29938;SDS011;16799;50.844;5.304;2023-06-22T12:56:21;78.50;;;52.47;;
29938;SDS011;16799;50.844;5.304;2023-06-22T12:58:46;73.43;;;55.10;;
29938;SDS011;16799;50.844;5.304;2023-06-22T13:01:12;76.40;;;56.60;;
29938;SDS011;16799;50.844;5.304;2023-06-22T13:03:38;74.63;;;54.17;;
29938;SDS011;16799;50.844;5.304;2023-06-22T13:06:04;84.10;;;56.43;;
29938;SDS011;16799;50.844;5.304;2023-06-22T13:08:29;86.50;;;58.40;;
29938;SDS011;16799;50.844;5.304;2023-06-22T13:10:55;76.10;;;54.67;;
29938;SDS011;16799;50.844;5.304;2023-06-22T13:13:23;74.57;;;57.80;;
29938;SDS011;16799;50.844;5.304;2023-06-22T13:15:50;86.53;;;58.67;;
29938;SDS011;16799;50.844;5.304;2023-06-22T13:18:15;78.30;;;57.73;;
29938;SDS011;16799;50.844;5.304;2023-06-22T13:20:41;80.57;;;58.73;;
29938;SDS011;16799;50.844;5.304;2023-06-22T13:23:07;80.13;;;54.60;;
29938;SDS011;16799;50.844;5.304;2023-06-22T13:25:32;101.50;;;60.40;;
29938;SDS011;16799;50.844;5.304;2023-06-22T13:27:58;85.33;;;58.50;;
29938;SDS011;16799;50.844;5.304;2023-06-22T13:30:24;70.40;;;53.23;;
29938;SDS011;16799;50.844;5.304;2023-06-22T13:32:49;71.20;;;54.23;;
29938;SDS011;16799;50.844;5.304;2023-06-22T13:35:15;72.87;;;50.53;;
29938;SDS011;16799;50.844;5.304;2023-06-22T13:37:40;66.57;;;49.27;;
29938;SDS011;16799;50.844;5.304;2023-06-22T13:40:07;67.30;;;49.77;;
29938;SDS011;16799;50.844;5.304;2023-06-22T13:42:33;66.60;;;49.30;;
29938;SDS011;16799;50.844;5.304;2023-06-22T13:44:59;63.90;;;46.93;;
29938;SDS011;16799;50.844;5.304;2023-06-22T13:47:24;68.10;;;46.20;;
29938;SDS011;16799;50.844;5.304;2023-06-22T13:49:50;55.57;;;42.50;;
29938;SDS011;16799;50.844;5.304;2023-06-22T13:52:16;56.97;;;43.63;;
29938;SDS011;16799;50.844;5.304;2023-06-22T13:54:41;68.03;;;44.63;;
29938;SDS011;16799;50.844;5.304;2023-06-22T13:57:07;54.20;;;40.10;;
29938;SDS011;16799;50.844;5.304;2023-06-22T13:59:33;51.27;;;38.17;;
29938;SDS011;16799;50.844;5.304;2023-06-22T14:01:58;62.67;;;40.10;;
29938;SDS011;16799;50.844;5.304;2023-06-22T14:04:24;69.70;;;43.37;;
29938;SDS011;16799;50.844;5.304;2023-06-22T14:06:50;56.10;;;40.80;;
29938;SDS011;16799;50.844;5.304;2023-06-22T14:09:15;61.53;;;42.97;;
29938;SDS011;16799;50.844;5.304;2023-06-22T14:11:41;64.27;;;45.30;;
29938;SDS011;16799;50.844;5.304;2023-06-22T14:14:06;59.07;;;44.63;;
29938;SDS011;16799;50.844;5.304;2023-06-22T14:16:32;65.20;;;47.30;;
29938;SDS011;16799;50.844;5.304;2023-06-22T14:18:58;72.10;;;46.97;;
29938;SDS011;16799;50.844;5.304;2023-06-22T14:21:24;70.00;;;48.17;;
29938;SDS011;16799;50.844;5.304;2023-06-22T14:23:50;65.27;;;47.00;;
29938;SDS011;16799;50.844;5.304;2023-06-22T14:26:16;67.63;;;48.00;;